Time;durP1;ratioP1;P1;durP2;ratioP2;P2;SDS_P1;SDS_P2;PMS_P1;PMS_P2;Temp;Humidity;BMP_temperature;BMP_pressure;BME280_temperature;BME280_humidity;BME280_pressure;Samples;Min_cycle;Max_cycle;Signal;HPM_P1;HPM_P2
2024/01/15 00:00:14;;;;;;;40.50;22.10;;;;;;;;;;4936803;29;20438;-60
2024/01/15 00:02:39;;;;;;;45.05;23.45;;;;;;;;;;4931113;29;20039;-52
2024/01/15 00:05:05;;;;;;;45.85;24.67;;;;;;;;;;4937374;29;20083;-58
2024/01/15 00:07:30;;;;;;;31.77;19.85;;;;;;;;;;4936302;29;20046;-57
2024/01/15 00:09:56;;;;;;;35.50;20.05;;;;;;;;;;4933203;29;20027;-55
2024/01/15 00:12:21;;;;;;;37.35;19.67;;;;;;;;;;4927265;29;20067;-55
2024/01/15 00:14:46;;;;;;;45.80;23.70;;;;;;;;;;4937633;29;20553;-57
2024/01/15 00:17:12;;;;;;;47.03;22.63;;;;;;;;;;4934628;29;20043;-55
2024/01/15 00:19:38;;;;;;;35.60;21.02;;;;;;;;;;4930866;29;20035;-58
2024/01/15 00:22:04;;;;;;;39.38;22.65;;;;;;;;;;4936225;29;20078;-58
2024/01/15 00:24:29;;;;;;;33.42;19.65;;;;;;;;;;4935132;29;20094;-57
2024/01/15 00:26:55;;;;;;;38.47;21.23;;;;;;;;;;4935664;29;20110;-54
2024/01/15 00:29:21;;;;;;;39.15;21.73;;;;;;;;;;4937412;29;20098;-57
2024/01/15 00:31:46;;;;;;;33.28;20.15;;;;;;;;;;4935906;29;20169;-56
2024/01/15 00:34:11;;;;;;;33.00;18.15;;;;;;;;;;4937513;29;20031;-52
2024/01/15 00:36:37;;;;;;;35.53;19.70;;;;;;;;;;4932749;29;20024;-59
2024/01/15 00:39:04;;;;;;;33.67;20.63;;;;;;;;;;4937161;29;20038;-56
2024/01/15 00:41:30;;;;;;;35.08;20.30;;;;;;;;;;4935869;29;20052;-57
2024/01/15 00:43:56;;;;;;;35.33;21.80;;;;;;;;;;4935012;29;20442;-59
2024/01/15 00:46:21;;;;;;;40.03;23.15;;;;;;;;;;4937282;29;20019;-57
2024/01/15 00:48:47;;;;;;;39.17;23.00;;;;;;;;;;4932226;29;20066;-52
2024/01/15 00:51:13;;;;;;;36.17;20.23;;;;;;;;;;4934327;29;20028;-55
2024/01/15 00:53:38;;;;;;;40.00;21.65;;;;;;;;;;4929057;29;20052;-53
2024/01/15 00:56:04;;;;;;;44.85;22.20;;;;;;;;;;4937557;29;20638;-58
2024/01/15 00:58:29;;;;;;;35.08;20.75;;;;;;;;;;4928061;29;20421;-57
2024/01/15 01:00:55;;;;;;;42.03;24.17;;;;;;;;;;4936992;29;20062;-59
2024/01/15 01:03:20;;;;;;;39.70;22.88;;;;;;;;;;4931439;29;20039;-57
2024/01/15 01:05:48;;;;;;;43.08;29.92;;;;;;;;;;4934697;29;20677;-58
2024/01/15 01:08:13;;;;;;;40.22;25.40;;;;;;;;;;4933103;29;20406;-53
2024/01/15 01:10:38;;;;;;;43.72;23.42;;;;;;;;;;4926705;29;20032;-59
2024/01/15 01:13:04;;;;;;;36.92;22.15;;;;;;;;;;4932465;29;20032;-56
2024/01/15 01:15:29;;;;;;;45.95;22.75;;;;;;;;;;4932734;29;20082;-56
2024/01/15 01:17:54;;;;;;;38.95;23.08;;;;;;;;;;4936408;29;20441;-57
2024/01/15 01:20:20;;;;;;;39.20;23.52;;;;;;;;;;4936783;29;20401;-56
2024/01/15 01:22:45;;;;;;;46.78;25.65;;;;;;;;;;4926293;29;20075;-58
2024/01/15 01:25:10;;;;;;;31.30;20.67;;;;;;;;;;4936492;29;20092;-57
2024/01/15 01:27:36;;;;;;;43.88;24.65;;;;;;;;;;4936727;29;20039;-58
2024/01/15 01:30:02;;;;;;;47.53;24.00;;;;;;;;;;4935171;29;20063;-58
2024/01/15 01:32:27;;;;;;;43.95;23.42;;;;;;;;;;4937546;29;20052;-57
2024/01/15 01:34:52;;;;;;;45.15;24.73;;;;;;;;;;4932465;29;20083;-57
2024/01/15 01:37:18;;;;;;;49.03;25.27;;;;;;;;;;4932584;29;20067;-55
2024/01/15 01:39:43;;;;;;;47.08;24.48;;;;;;;;;;4938728;29;20123;-59
2024/01/15 01:42:09;;;;;;;45.15;25.20;;;;;;;;;;4937931;29;20032;-59
2024/01/15 01:44:35;;;;;;;47.88;27.13;;;;;;;;;;4939481;29;20038;-59
2024/01/15 01:47:01;;;;;;;46.35;24.08;;;;;;;;;;4939352;29;20032;-59
2024/01/15 01:49:27;;;;;;;42.22;24.48;;;;;;;;;;4938025;29;20043;-58
2024/01/15 01:51:55;;;;;;;41.15;23.05;;;;;;;;;;4935665;29;20100;-60
2024/01/15 01:54:20;;;;;;;40.92;22.95;;;;;;;;;;4935506;29;20024;-59
2024/01/15 01:56:48;;;;;;;33.67;20.17;;;;;;;;;;4936746;29;20513;-57
2024/01/15 01:59:13;;;;;;;30.75;18.27;;;;;;;;;;4932782;29;20042;-57
2024/01/15 02:01:39;;;;;;;29.13;19.15;;;;;;;;;;4938873;29;20028;-58
2024/01/15 02:04:05;;;;;;;28.73;19.23;;;;;;;;;;4936215;29;20051;-58
2024/01/15 02:06:30;;;;;;;30.00;18.90;;;;;;;;;;4939022;29;20091;-59
2024/01/15 02:08:56;;;;;;;34.60;18.63;;;;;;;;;;4937371;29;20031;-57
2024/01/15 02:11:21;;;;;;;30.80;18.05;;;;;;;;;;4939283;29;20482;-56
2024/01/15 02:13:47;;;;;;;31.77;18.00;;;;;;;;;;4935211;29;20039;-57
2024/01/15 02:16:12;;;;;;;29.80;17.00;;;;;;;;;;4935935;29;20067;-57
2024/01/15 02:18:42;;;;;;;28.85;18.10;;;;;;;;;;4932970;29;20055;-59
2024/01/15 02:21:09;;;;;;;30.90;18.35;;;;;;;;;;4930982;29;20024;-56
2024/01/15 02:23:34;;;;;;;28.70;20.52;;;;;;;;;;4937062;29;20761;-59
2024/01/15 02:26:00;;;;;;;36.38;20.08;;;;;;;;;;4935896;29;20382;-58
2024/01/15 02:28:25;;;;;;;29.60;18.95;;;;;;;;;;4935392;29;20466;-58
2024/01/15 02:30:50;;;;;;;28.30;17.58;;;;;;;;;;4937733;29;20031;-58
2024/01/15 02:33:16;;;;;;;29.92;20.50;;;;;;;;;;4938142;29;20043;-59
2024/01/15 02:35:41;;;;;;;30.15;17.65;;;;;;;;;;4939311;29;20024;-59
2024/01/15 02:38:07;;;;;;;28.52;18.75;;;;;;;;;;4937395;29;20088;-59
2024/01/15 02:40:33;;;;;;;29.20;19.00;;;;;;;;;;4936296;29;20443;-57
2024/01/15 02:42:58;;;;;;;28.67;19.15;;;;;;;;;;4935639;29;20035;-57
2024/01/15 02:45:24;;;;;;;26.85;15.65;;;;;;;;;;4938687;29;20040;-59
2024/01/15 02:47:50;;;;;;;27.90;15.25;;;;;;;;;;4930990;29;20184;-57
2024/01/15 02:50:15;;;;;;;26.75;14.55;;;;;;;;;;4937538;29;20047;-59
2024/01/15 02:52:44;;;;;;;23.67;14.63;;;;;;;;;;4936298;29;20040;-58
2024/01/15 02:55:09;;;;;;;22.17;14.18;;;;;;;;;;4935611;29;20032;-57
2024/01/15 02:57:35;;;;;;;25.13;14.77;;;;;;;;;;4937639;29;20050;-59
2024/01/15 03:00:01;;;;;;;26.92;16.20;;;;;;;;;;4937819;29;20035;-60
2024/01/15 03:02:26;;;;;;;20.83;14.77;;;;;;;;;;4937139;29;20403;-58
2024/01/15 03:04:51;;;;;;;26.80;15.73;;;;;;;;;;4934647;29;20030;-58
2024/01/15 03:07:17;;;;;;;24.85;14.35;;;;;;;;;;4935326;29;20696;-58
2024/01/15 03:09:42;;;;;;;34.53;18.33;;;;;;;;;;4936481;29;20042;-56
2024/01/15 03:12:08;;;;;;;39.00;20.75;;;;;;;;;;4936297;29;20550;-57
2024/01/15 03:14:33;;;;;;;24.55;14.73;;;;;;;;;;4937669;29;20114;-58
2024/01/15 03:17:00;;;;;;;24.08;14.98;;;;;;;;;;4936261;29;20118;-58
2024/01/15 03:19:26;;;;;;;23.25;13.45;;;;;;;;;;4938625;29;20783;-56
2024/01/15 03:21:51;;;;;;;24.83;16.17;;;;;;;;;;4930251;29;20039;-58
2024/01/15 03:24:16;;;;;;;23.23;14.18;;;;;;;;;;4937966;29;20020;-59
2024/01/15 03:26:42;;;;;;;25.08;12.68;;;;;;;;;;4937033;29;20169;-57
2024/01/15 03:29:07;;;;;;;22.58;15.20;;;;;;;;;;4935765;29;20751;-56
2024/01/15 03:31:33;;;;;;;26.73;15.10;;;;;;;;;;4930578;29;20024;-59
2024/01/15 03:33:58;;;;;;;26.52;15.15;;;;;;;;;;4937206;29;20539;-58
2024/01/15 03:36:23;;;;;;;23.60;13.85;;;;;;;;;;4932779;29;20078;-58
2024/01/15 03:38:49;;;;;;;22.88;16.67;;;;;;;;;;4934026;29;20159;-57
2024/01/15 03:41:14;;;;;;;26.90;16.33;;;;;;;;;;4935777;29;20032;-58
2024/01/15 03:43:40;;;;;;;25.15;15.23;;;;;;;;;;4936883;29;20028;-57
2024/01/15 03:46:05;;;;;;;26.25;15.82;;;;;;;;;;4933892;29;20024;-59
2024/01/15 03:48:31;;;;;;;20.25;15.25;;;;;;;;;;4933988;29;20039;-58
2024/01/15 03:50:56;;;;;;;26.85;16.15;;;;;;;;;;4936742;29;20098;-55
2024/01/15 03:53:22;;;;;;;27.02;17.08;;;;;;;;;;4934134;29;20083;-58
2024/01/15 03:55:47;;;;;;;27.02;17.52;;;;;;;;;;4937322;29;20032;-57
2024/01/15 03:58:14;;;;;;;32.75;19.80;;;;;;;;;;4935207;29;20114;-57
2024/01/15 04:00:40;;;;;;;35.42;18.33;;;;;;;;;;4932895;29;20023;-59
2024/01/15 04:03:06;;;;;;;50.53;25.42;;;;;;;;;;4931079;29;20083;-56
2024/01/15 04:05:31;;;;;;;46.22;27.38;;;;;;;;;;4928129;29;20780;-59
2024/01/15 04:07:56;;;;;;;36.40;19.80;;;;;;;;;;4937339;29;20048;-58
2024/01/15 04:10:22;;;;;;;34.92;20.85;;;;;;;;;;4935658;29;20024;-57
2024/01/15 04:12:47;;;;;;;40.85;23.10;;;;;;;;;;4929744;29;20081;-58
2024/01/15 04:15:13;;;;;;;39.20;21.25;;;;;;;;;;4934200;29;20048;-59
2024/01/15 04:17:38;;;;;;;39.53;20.52;;;;;;;;;;4928447;29;20124;-58
2024/01/15 04:20:04;;;;;;;27.20;16.70;;;;;;;;;;4936058;29;20027;-57
2024/01/15 04:22:30;;;;;;;36.33;19.85;;;;;;;;;;4935993;29;20050;-59
2024/01/15 04:24:55;;;;;;;33.83;20.75;;;;;;;;;;4935276;29;20027;-57
2024/01/15 04:27:21;;;;;;;32.13;18.95;;;;;;;;;;4935598;29;20123;-57
2024/01/15 04:29:46;;;;;;;31.90;19.33;;;;;;;;;;4934929;29;20044;-54
2024/01/15 04:32:11;;;;;;;33.63;20.27;;;;;;;;;;4933195;29;20040;-51
2024/01/15 04:34:37;;;;;;;39.95;22.90;;;;;;;;;;4935066;29;20476;-59
2024/01/15 04:37:02;;;;;;;39.47;22.33;;;;;;;;;;4937201;29;20035;-57
2024/01/15 04:39:29;;;;;;;30.83;18.33;;;;;;;;;;4933414;29;20042;-59
2024/01/15 04:41:54;;;;;;;31.70;21.83;;;;;;;;;;4934136;29;20695;-58
2024/01/15 04:44:20;;;;;;;37.60;20.10;;;;;;;;;;4934319;29;20028;-59
2024/01/15 04:46:45;;;;;;;38.70;21.98;;;;;;;;;;4934436;29;20040;-55
2024/01/15 04:49:11;;;;;;;32.95;19.58;;;;;;;;;;4936165;29;20032;-56
2024/01/15 04:51:36;;;;;;;37.63;21.80;;;;;;;;;;4936790;29;20020;-57
2024/01/15 04:54:02;;;;;;;38.38;22.33;;;;;;;;;;4934023;29;20042;-59
2024/01/15 04:56:27;;;;;;;39.90;22.40;;;;;;;;;;4935785;29;20087;-58
2024/01/15 04:58:52;;;;;;;43.03;24.40;;;;;;;;;;4937081;29;20024;-59
2024/01/15 05:01:18;;;;;;;39.83;22.90;;;;;;;;;;4935578;29;20507;-56
2024/01/15 05:03:43;;;;;;;31.08;19.35;;;;;;;;;;4933872;29;20098;-57
2024/01/15 05:06:09;;;;;;;32.67;18.13;;;;;;;;;;4937176;29;20026;-57
2024/01/15 05:08:34;;;;;;;34.03;17.75;;;;;;;;;;4937483;29;20911;-56
2024/01/15 05:10:59;;;;;;;30.77;18.40;;;;;;;;;;4936600;29;20167;-59
2024/01/15 05:13:25;;;;;;;23.58;13.70;;;;;;;;;;4929293;29;20043;-59
2024/01/15 05:15:50;;;;;;;24.85;13.88;;;;;;;;;;4933405;29;20051;-59
2024/01/15 05:18:16;;;;;;;25.48;14.60;;;;;;;;;;4937137;29;20051;-57
2024/01/15 05:20:42;;;;;;;25.67;16.05;;;;;;;;;;4938236;29;20039;-60
2024/01/15 05:23:07;;;;;;;23.27;13.27;;;;;;;;;;4931054;29;20032;-57
2024/01/15 05:25:33;;;;;;;27.50;15.05;;;;;;;;;;4937189;29;20051;-57
2024/01/15 05:27:58;;;;;;;25.52;16.02;;;;;;;;;;4938102;29;20031;-54
2024/01/15 05:30:24;;;;;;;27.52;16.20;;;;;;;;;;4935255;29;20032;-58
2024/01/15 05:32:49;;;;;;;30.38;17.23;;;;;;;;;;4937736;29;20480;-58
2024/01/15 05:35:15;;;;;;;30.65;18.10;;;;;;;;;;4930932;29;20070;-58
2024/01/15 05:37:44;;;;;;;27.92;16.55;;;;;;;;;;4938036;29;20043;-54
2024/01/15 05:40:09;;;;;;;;;;;;;;;;;;4939625;29;20031;-56
2024/01/15 05:42:35;;;;;;;22.63;12.95;;;;;;;;;;4939470;29;19994;-58
2024/01/15 05:45:02;;;;;;;22.92;15.95;;;;;;;;;;4934234;29;20031;-57
2024/01/15 05:47:28;;;;;;;24.58;14.68;;;;;;;;;;4933394;29;20051;-57
2024/01/15 05:49:54;;;;;;;25.60;15.43;;;;;;;;;;4936285;29;20036;-59
2024/01/15 05:52:21;;;;;;;21.95;14.60;;;;;;;;;;4935509;29;20039;-57
2024/01/15 05:54:47;;;;;;;23.63;15.82;;;;;;;;;;4937411;29;20031;-59
2024/01/15 05:57:12;;;;;;;21.10;13.13;;;;;;;;;;4935146;29;20741;-57
2024/01/15 05:59:38;;;;;;;22.80;14.50;;;;;;;;;;4938666;29;20059;-56
2024/01/15 06:02:03;;;;;;;22.15;13.45;;;;;;;;;;4929780;29;20096;-58
2024/01/15 06:04:29;;;;;;;20.10;13.70;;;;;;;;;;4929585;29;20039;-58
2024/01/15 06:06:54;;;;;;;21.42;13.43;;;;;;;;;;4930978;29;20040;-56
2024/01/15 06:09:20;;;;;;;20.30;12.25;;;;;;;;;;4935866;29;20110;-57
2024/01/15 06:11:45;;;;;;;28.45;17.25;;;;;;;;;;4936936;29;20051;-59
2024/01/15 06:14:10;;;;;;;32.50;17.30;;;;;;;;;;4938497;29;20043;-57
2024/01/15 06:16:36;;;;;;;25.48;17.13;;;;;;;;;;4934447;29;20044;-53
2024/01/15 06:19:01;;;;;;;26.58;14.18;;;;;;;;;;4936313;29;20478;-57
2024/01/15 06:21:26;;;;;;;23.60;15.27;;;;;;;;;;4932874;29;20066;-53
2024/01/15 06:23:52;;;;;;;21.92;13.30;;;;;;;;;;4932429;29;20039;-58
2024/01/15 06:26:17;;;;;;;35.33;19.02;;;;;;;;;;4937754;29;20036;-58
2024/01/15 06:28:43;;;;;;;127.38;55.40;;;;;;;;;;4933422;29;20039;-57
2024/01/15 06:31:08;;;;;;;96.63;42.70;;;;;;;;;;4932191;29;20027;-56
2024/01/15 06:33:34;;;;;;;30.55;19.10;;;;;;;;;;4936174;29;20104;-57
2024/01/15 06:35:59;;;;;;;24.20;15.45;;;;;;;;;;4934462;29;20035;-55
2024/01/15 06:38:25;;;;;;;24.27;15.80;;;;;;;;;;4939015;29;20040;-57
2024/01/15 06:40:51;;;;;;;22.02;15.80;;;;;;;;;;4928414;29;20055;-53
2024/01/15 06:43:17;;;;;;;21.27;12.38;;;;;;;;;;4934604;29;20683;-59
2024/01/15 06:45:45;;;;;;;15.98;11.10;;;;;;;;;;4933568;29;20028;-54
2024/01/15 06:48:14;;;;;;;16.63;11.02;;;;;;;;;;4926455;29;20047;-56
2024/01/15 06:50:40;;;;;;;17.08;10.25;;;;;;;;;;4932875;29;20027;-59
2024/01/15 06:53:05;;;;;;;14.55;8.88;;;;;;;;;;4935869;29;20119;-59
2024/01/15 06:55:30;;;;;;;14.93;11.02;;;;;;;;;;4929831;29;20031;-57
2024/01/15 06:57:56;;;;;;;16.40;11.68;;;;;;;;;;4935302;29;20042;-59
2024/01/15 07:00:21;;;;;;;15.48;10.90;;;;;;;;;;4933920;29;20482;-59
2024/01/15 07:02:47;;;;;;;18.73;10.55;;;;;;;;;;4936838;29;20165;-57
2024/01/15 07:05:12;;;;;;;20.25;12.63;;;;;;;;;;4937027;29;20035;-56
2024/01/15 07:07:37;;;;;;;19.30;11.48;;;;;;;;;;4935445;29;20087;-58
2024/01/15 07:10:04;;;;;;;19.48;12.88;;;;;;;;;;4930029;29;20437;-57
2024/01/15 07:12:30;;;;;;;20.70;14.20;;;;;;;;;;4928498;28;20027;-58
2024/01/15 07:14:56;;;;;;;20.85;12.07;;;;;;;;;;4926613;29;20031;-58
2024/01/15 07:17:21;;;;;;;21.92;12.02;;;;;;;;;;4930600;29;20040;-56
2024/01/15 07:19:47;;;;;;;21.58;13.38;;;;;;;;;;4926827;29;20032;-53
2024/01/15 07:22:13;;;;;;;20.83;13.85;;;;;;;;;;4930210;29;20046;-56
2024/01/15 07:24:38;;;;;;;25.98;13.02;;;;;;;;;;4928983;29;20036;-56
2024/01/15 07:27:04;;;;;;;22.33;14.27;;;;;;;;;;4925740;29;20044;-56
2024/01/15 07:29:32;;;;;;;27.42;17.38;;;;;;;;;;4929273;29;20054;-55
2024/01/15 07:31:58;;;;;;;29.25;18.08;;;;;;;;;;4932551;29;20036;-56
2024/01/15 07:34:24;;;;;;;25.45;15.77;;;;;;;;;;4927876;29;20159;-54
2024/01/15 07:36:49;;;;;;;21.90;14.90;;;;;;;;;;4927697;29;20079;-56
2024/01/15 07:39:14;;;;;;;19.83;12.32;;;;;;;;;;4932133;29;20024;-55
2024/01/15 07:41:40;;;;;;;21.95;14.25;;;;;;;;;;4930322;28;20050;-57
2024/01/15 07:44:05;;;;;;;19.02;12.13;;;;;;;;;;4929819;29;20038;-59
2024/01/15 07:46:31;;;;;;;23.30;15.40;;;;;;;;;;4931544;29;20436;-58
2024/01/15 07:48:57;;;;;;;22.63;15.68;;;;;;;;;;4930303;29;20106;-59
2024/01/15 07:51:23;;;;;;;19.15;14.55;;;;;;;;;;4931011;29;20119;-57
2024/01/15 07:53:49;;;;;;;21.83;13.43;;;;;;;;;;4929946;29;20466;-56
2024/01/15 07:56:14;;;;;;;20.50;12.43;;;;;;;;;;4929056;29;20061;-57
2024/01/15 07:58:42;;;;;;;17.02;13.40;;;;;;;;;;4931568;29;20039;-57
2024/01/15 08:01:07;;;;;;;19.33;13.38;;;;;;;;;;4930823;29;20903;-56
2024/01/15 08:03:33;;;;;;;21.52;13.88;;;;;;;;;;4927618;29;20058;-58
2024/01/15 08:05:59;;;;;;;18.63;12.30;;;;;;;;;;4929625;29;20034;-58
2024/01/15 08:08:28;;;;;;;20.17;12.93;;;;;;;;;;4929025;29;20040;-57
2024/01/15 08:10:54;;;;;;;22.85;13.68;;;;;;;;;;4934395;29;20443;-55
2024/01/15 08:13:20;;;;;;;23.98;15.02;;;;;;;;;;4930798;29;20074;-57
2024/01/15 08:15:45;;;;;;;24.92;16.05;;;;;;;;;;4928252;29;20104;-55
2024/01/15 08:18:11;;;;;;;24.95;18.88;;;;;;;;;;4930767;29;20043;-55
2024/01/15 08:20:37;;;;;;;34.10;23.25;;;;;;;;;;4930881;29;20035;-56
2024/01/15 08:23:02;;;;;;;26.58;17.40;;;;;;;;;;4930627;29;20363;-52
2024/01/15 08:25:28;;;;;;;24.90;15.45;;;;;;;;;;4936655;29;20158;-54
2024/01/15 08:27:53;;;;;;;23.73;15.52;;;;;;;;;;4936196;29;20058;-57
2024/01/15 08:30:20;;;;;;;20.42;14.30;;;;;;;;;;4935901;29;20032;-57
2024/01/15 08:32:45;;;;;;;20.23;14.77;;;;;;;;;;4932173;29;20055;-55
2024/01/15 08:35:11;;;;;;;20.77;13.93;;;;;;;;;;4937390;29;20028;-57
2024/01/15 08:37:37;;;;;;;25.08;14.98;;;;;;;;;;4927777;29;20055;-57
2024/01/15 08:40:03;;;;;;;21.27;13.68;;;;;;;;;;4930955;29;20041;-56
2024/01/15 08:42:29;;;;;;;22.73;15.27;;;;;;;;;;4934929;29;20635;-54
2024/01/15 08:44:54;;;;;;;23.65;14.55;;;;;;;;;;4934579;29;20162;-58
2024/01/15 08:47:20;;;;;;;23.70;15.18;;;;;;;;;;4930778;29;20039;-57
2024/01/15 08:49:46;;;;;;;24.23;14.10;;;;;;;;;;4931355;29;20035;-56
2024/01/15 08:52:11;;;;;;;22.20;13.90;;;;;;;;;;4932931;29;20134;-54
2024/01/15 08:54:36;;;;;;;19.92;13.35;;;;;;;;;;4938020;29;20034;-56
2024/01/15 08:57:02;;;;;;;23.00;14.20;;;;;;;;;;4938550;29;20087;-56
2024/01/15 08:59:28;;;;;;;22.88;13.98;;;;;;;;;;4935605;29;20066;-58
2024/01/15 09:01:54;;;;;;;20.45;12.98;;;;;;;;;;4934822;29;20078;-58
2024/01/15 09:04:19;;;;;;;18.95;12.50;;;;;;;;;;4932376;29;20031;-55
2024/01/15 09:06:47;;;;;;;17.63;11.68;;;;;;;;;;4935980;29;20067;-57
2024/01/15 09:09:14;;;;;;;20.42;13.38;;;;;;;;;;4934545;29;20032;-56
2024/01/15 09:11:40;;;;;;;23.05;14.25;;;;;;;;;;4931234;29;20082;-54
2024/01/15 09:14:06;;;;;;;20.98;14.35;;;;;;;;;;4935137;29;20082;-58
2024/01/15 09:16:31;;;;;;;20.67;13.32;;;;;;;;;;4936078;29;20051;-58
2024/01/15 09:18:57;;;;;;;19.70;12.63;;;;;;;;;;4934715;29;20394;-53
2024/01/15 09:21:24;;;;;;;16.67;12.05;;;;;;;;;;4935053;29;20031;-58
2024/01/15 09:23:50;;;;;;;21.48;12.82;;;;;;;;;;4933067;29;20435;-57
2024/01/15 09:26:15;;;;;;;18.17;13.38;;;;;;;;;;4931141;29;20411;-55
2024/01/15 09:28:41;;;;;;;17.77;11.82;;;;;;;;;;4936062;29;20036;-57
2024/01/15 09:31:06;;;;;;;19.02;14.43;;;;;;;;;;4929610;29;20034;-57
2024/01/15 09:33:32;;;;;;;20.48;11.07;;;;;;;;;;4933578;29;22031;-58
2024/01/15 09:35:57;;;;;;;23.42;13.23;;;;;;;;;;4934860;29;20790;-56
2024/01/15 09:38:23;;;;;;;16.25;11.75;;;;;;;;;;4935809;29;20068;-57
2024/01/15 09:40:49;;;;;;;19.85;14.45;;;;;;;;;;4935667;29;20043;-57
2024/01/15 09:43:15;;;;;;;19.15;12.75;;;;;;;;;;4936155;29;20929;-53
2024/01/15 09:45:42;;;;;;;20.45;12.60;;;;;;;;;;4938247;29;20106;-56
2024/01/15 09:48:08;;;;;;;19.27;13.15;;;;;;;;;;4933353;29;20044;-57
2024/01/15 09:50:34;;;;;;;22.50;14.35;;;;;;;;;;4930994;29;20197;-56
2024/01/15 09:52:59;;;;;;;17.80;12.23;;;;;;;;;;4931764;29;20039;-56
2024/01/15 09:55:26;;;;;;;17.95;12.27;;;;;;;;;;4935314;29;20079;-58
2024/01/15 09:57:53;;;;;;;23.92;14.32;;;;;;;;;;4930204;29;21584;-57
2024/01/15 10:00:19;;;;;;;27.67;16.23;;;;;;;;;;4938386;29;20044;-58
2024/01/15 10:02:45;;;;;;;24.33;15.00;;;;;;;;;;4933772;29;20104;-57
2024/01/15 10:05:11;;;;;;;23.85;13.43;;;;;;;;;;4931631;29;20453;-57
2024/01/15 10:07:38;;;;;;;19.27;13.60;;;;;;;;;;4933333;29;20395;-56
2024/01/15 10:10:03;;;;;;;21.67;13.90;;;;;;;;;;4935587;29;20055;-56
2024/01/15 10:12:29;;;;;;;18.73;11.73;;;;;;;;;;4936853;29;20546;-57
2024/01/15 10:14:56;;;;;;;24.55;12.80;;;;;;;;;;4929717;29;20028;-57
2024/01/15 10:17:22;;;;;;;21.75;12.77;;;;;;;;;;4934847;29;20058;-58
2024/01/15 10:19:47;;;;;;;17.02;11.95;;;;;;;;;;4933084;29;20036;-54
2024/01/15 10:22:14;;;;;;;18.65;13.15;;;;;;;;;;4937307;29;20043;-57
2024/01/15 10:24:40;;;;;;;17.80;11.25;;;;;;;;;;4934614;29;21046;-58
2024/01/15 10:27:08;;;;;;;16.80;11.40;;;;;;;;;;4929657;29;20143;-56
2024/01/15 10:29:34;;;;;;;17.40;14.32;;;;;;;;;;4926825;29;20028;-57
2024/01/15 10:32:00;;;;;;;17.95;13.07;;;;;;;;;;4930573;29;20040;-54
2024/01/15 10:34:26;;;;;;;14.98;12.35;;;;;;;;;;4933530;29;20622;-58
2024/01/15 10:36:55;;;;;;;20.23;12.73;;;;;;;;;;4933853;29;20051;-58
2024/01/15 10:39:22;;;;;;;16.40;10.43;;;;;;;;;;4931239;29;20030;-58
2024/01/15 10:41:47;;;;;;;18.60;13.57;;;;;;;;;;4927817;29;20047;-54
2024/01/15 10:44:13;;;;;;;20.02;13.50;;;;;;;;;;4930746;29;20406;-56
2024/01/15 10:46:38;;;;;;;18.73;11.38;;;;;;;;;;4933102;29;20016;-53
2024/01/15 10:49:04;;;;;;;17.80;12.20;;;;;;;;;;4931058;29;20056;-56
2024/01/15 10:51:30;;;;;;;16.23;12.18;;;;;;;;;;4930072;29;20039;-54
2024/01/15 10:53:57;;;;;;;19.00;12.13;;;;;;;;;;4930840;29;20111;-56
2024/01/15 10:56:23;;;;;;;18.15;11.73;;;;;;;;;;4931605;29;20158;-53
2024/01/15 10:58:50;;;;;;;17.15;11.10;;;;;;;;;;4934332;29;20028;-59
2024/01/15 11:01:16;;;;;;;16.88;11.18;;;;;;;;;;4933705;29;20565;-57
2024/01/15 11:03:43;;;;;;;16.23;11.50;;;;;;;;;;4929130;29;20079;-58
2024/01/15 11:06:21;;;;;;;18.05;12.30;;;;;;;;;;4930401;29;20035;-56
2024/01/15 11:08:52;;;;;;;15.93;11.05;;;;;;;;;;4928715;29;20051;-55
2024/01/15 11:11:18;;;;;;;17.45;12.40;;;;;;;;;;4925336;29;20047;-57
2024/01/15 11:13:46;;;;;;;18.42;13.80;;;;;;;;;;4933472;29;20784;-58
2024/01/15 11:16:14;;;;;;;18.08;12.18;;;;;;;;;;4933571;29;20062;-57
2024/01/15 11:18:41;;;;;;;18.83;13.35;;;;;;;;;;4930216;29;20051;-55
2024/01/15 11:21:13;;;;;;;19.55;12.00;;;;;;;;;;4928572;29;20031;-56
2024/01/15 11:23:53;;;;;;;14.65;12.15;;;;;;;;;;4931937;29;20055;-57
2024/01/15 11:26:31;;;;;;;17.15;11.82;;;;;;;;;;4933480;29;20034;-55
2024/01/15 11:28:59;;;;;;;15.23;10.93;;;;;;;;;;4930906;29;20415;-56
2024/01/15 11:31:29;;;;;;;15.70;9.65;;;;;;;;;;4931064;29;20107;-57
2024/01/15 11:33:55;;;;;;;15.32;11.25;;;;;;;;;;4932673;29;20031;-52
2024/01/15 11:36:22;;;;;;;12.88;9.27;;;;;;;;;;4935343;29;20059;-48
2024/01/15 11:38:47;;;;;;;13.43;9.52;;;;;;;;;;4934595;29;20142;-53
2024/01/15 11:41:16;;;;;;;14.65;10.80;;;;;;;;;;4932940;29;20177;-53
2024/01/15 11:43:42;;;;;;;12.90;9.38;;;;;;;;;;4929258;29;20031;-56
2024/01/15 11:46:12;;;;;;;15.77;10.05;;;;;;;;;;4934725;29;20031;-57
2024/01/15 11:48:56;;;;;;;12.27;10.68;;;;;;;;;;4930718;29;20039;-58
2024/01/15 11:51:22;;;;;;;11.32;8.65;;;;;;;;;;4937061;29;20079;-58
2024/01/15 11:53:52;;;;;;;13.20;8.82;;;;;;;;;;4929331;29;20024;-57
2024/01/15 11:56:21;;;;;;;17.65;9.55;;;;;;;;;;4926715;29;20024;-58
2024/01/15 11:58:47;;;;;;;12.40;9.43;;;;;;;;;;4926217;29;20047;-56
2024/01/15 12:01:12;;;;;;;12.27;8.07;;;;;;;;;;4933019;29;20031;-57
2024/01/15 12:03:38;;;;;;;13.75;8.93;;;;;;;;;;4929255;29;20043;-59
2024/01/15 12:06:07;;;;;;;14.70;8.95;;;;;;;;;;4936182;29;20046;-56
2024/01/15 12:08:32;;;;;;;13.00;6.97;;;;;;;;;;4938173;28;20040;-58
2024/01/15 12:10:58;;;;;;;5.03;3.42;;;;;;;;;;4934446;29;20490;-57
2024/01/15 12:13:23;;;;;;;2.15;1.38;;;;;;;;;;4933385;29;20047;-57
2024/01/15 12:15:50;;;;;;;2.28;2.08;;;;;;;;;;4930226;29;20051;-57
2024/01/15 12:18:17;;;;;;;1.65;0.85;;;;;;;;;;4935169;29;20049;-58
2024/01/15 12:20:44;;;;;;;4.20;1.63;;;;;;;;;;4937713;29;20032;-58
2024/01/15 12:23:13;;;;;;;1.75;1.13;;;;;;;;;;4933015;29;20131;-58
2024/01/15 12:25:39;;;;;;;1.88;1.45;;;;;;;;;;4933156;29;20051;-57
2024/01/15 12:28:05;;;;;;;13.15;8.60;;;;;;;;;;4930899;28;20834;-58
2024/01/15 12:30:32;;;;;;;12.77;8.15;;;;;;;;;;4937052;29;20031;-56
2024/01/15 12:32:58;;;;;;;14.63;9.48;;;;;;;;;;4918368;28;20059;-56
2024/01/15 12:35:26;;;;;;;12.20;8.98;;;;;;;;;;4916690;29;20395;-55
2024/01/15 12:37:51;;;;;;;13.75;9.15;;;;;;;;;;4918399;29;20518;-57
2024/01/15 12:40:19;;;;;;;15.02;8.70;;;;;;;;;;4915008;29;20347;-59
2024/01/15 12:42:44;;;;;;;12.13;8.20;;;;;;;;;;4914299;29;20375;-59
2024/01/15 12:45:12;;;;;;;13.02;9.55;;;;;;;;;;4915244;29;20032;-56
2024/01/15 12:47:38;;;;;;;12.10;8.63;;;;;;;;;;4913920;29;20036;-54
2024/01/15 12:50:08;;;;;;;12.63;8.82;;;;;;;;;;4911185;29;20035;-55
2024/01/15 12:52:34;;;;;;;13.80;9.90;;;;;;;;;;4915792;29;20710;-55
2024/01/15 12:54:59;;;;;;;12.93;8.95;;;;;;;;;;4915125;29;20016;-57
2024/01/15 12:57:25;;;;;;;14.55;10.27;;;;;;;;;;4914978;29;20410;-58
2024/01/15 12:59:50;;;;;;;13.10;9.48;;;;;;;;;;4912183;29;20111;-57
2024/01/15 13:02:16;;;;;;;11.02;7.63;;;;;;;;;;4917381;29;20529;-55
2024/01/15 13:04:42;;;;;;;13.18;10.15;;;;;;;;;;4916318;29;20675;-58
2024/01/15 13:07:08;;;;;;;24.58;10.73;;;;;;;;;;4914926;29;20032;-56
2024/01/15 13:09:34;;;;;;;15.90;9.38;;;;;;;;;;4915482;29;20134;-56
2024/01/15 13:12:01;;;;;;;7.28;5.22;;;;;;;;;;4920853;29;20126;-57
2024/01/15 13:14:27;;;;;;;5.85;3.58;;;;;;;;;;4935247;29;20149;-56
2024/01/15 13:16:53;;;;;;;10.27;4.28;;;;;;;;;;4930073;29;20062;-54
2024/01/15 13:19:19;;;;;;;13.57;9.98;;;;;;;;;;4937880;29;20600;-58
2024/01/15 13:21:44;;;;;;;11.52;7.43;;;;;;;;;;4932243;29;20079;-56
2024/01/15 13:24:11;;;;;;;11.30;7.35;;;;;;;;;;4917469;29;20036;-56
2024/01/15 13:26:36;;;;;;;12.00;7.53;;;;;;;;;;4919513;29;20032;-58
2024/01/15 13:29:05;;;;;;;15.90;10.18;;;;;;;;;;4934286;29;20024;-55
2024/01/15 13:31:31;;;;;;;;;;;;;;;;;;4937481;29;20051;-57
2024/01/15 13:33:57;;;;;;;7.10;4.47;;;;;;;;;;4936000;29;20517;-59
2024/01/15 13:36:23;;;;;;;4.85;3.35;;;;;;;;;;4936536;29;20099;-57
2024/01/15 13:38:50;;;;;;;3.92;3.22;;;;;;;;;;4918609;29;20032;-57
2024/01/15 13:41:16;;;;;;;4.55;2.65;;;;;;;;;;4914258;29;20095;-55
2024/01/15 13:43:41;;;;;;;4.18;2.17;;;;;;;;;;4919345;29;20056;-59
2024/01/15 13:46:07;;;;;;;3.83;2.83;;;;;;;;;;4919857;29;20070;-57
2024/01/15 13:48:32;;;;;;;5.25;3.20;;;;;;;;;;4931852;29;20043;-58
2024/01/15 13:50:59;;;;;;;5.10;3.85;;;;;;;;;;4936997;29;20099;-58
2024/01/15 13:53:25;;;;;;;5.70;4.20;;;;;;;;;;4921703;29;20108;-58
2024/01/15 13:55:50;;;;;;;6.80;5.15;;;;;;;;;;4920055;29;20036;-56
2024/01/15 13:58:17;;;;;;;9.13;6.60;;;;;;;;;;4915830;29;20048;-58
2024/01/15 14:00:43;;;;;;;11.60;7.65;;;;;;;;;;4916781;29;20035;-59
2024/01/15 14:03:08;;;;;;;26.33;15.65;;;;;;;;;;4933977;29;20036;-56
2024/01/15 14:05:33;;;;;;;15.65;8.93;;;;;;;;;;4935692;29;20152;-58
2024/01/15 14:07:59;;;;;;;12.45;8.70;;;;;;;;;;4925726;28;20040;-56
2024/01/15 14:10:24;;;;;;;16.55;9.48;;;;;;;;;;4917490;29;20115;-55
2024/01/15 14:12:49;;;;;;;12.15;7.15;;;;;;;;;;4918276;29;20047;-55